createdAt,value
2019-04-30T00:02:05.699Z,14.67
2019-04-30T00:04:40.693Z,14.69
2019-04-30T00:07:15.490Z,14.78
2019-04-30T00:09:42.030Z,14.80
2019-04-30T00:12:12.610Z,14.76
2019-04-30T00:14:42.231Z,14.67
2019-04-30T00:17:15.979Z,14.55
2019-04-30T00:19:43.483Z,14.50
2019-04-30T00:22:15.851Z,14.49
2019-04-30T00:24:49.748Z,14.46
2019-04-30T00:27:21.106Z,14.40
2019-04-30T00:29:48.184Z,14.38
2019-04-30T00:32:17.665Z,14.35
2019-04-30T00:34:47.223Z,14.28
2019-04-30T00:37:18.896Z,14.20
2019-04-30T00:39:50.866Z,14.10
2019-04-30T00:42:24.462Z,13.94
2019-04-30T00:44:50.926Z,13.82
2019-04-30T00:47:20.370Z,13.78
2019-04-30T00:49:52.174Z,13.73
2019-04-30T00:52:21.782Z,13.66
2019-04-30T00:54:51.244Z,13.66
2019-04-30T00:57:21.071Z,13.70
2019-04-30T00:59:50.612Z,13.78
2019-04-30T01:02:41.902Z,13.89
2019-04-30T01:05:15.682Z,13.97
2019-04-30T01:07:50.167Z,13.93
2019-04-30T01:10:24.856Z,13.88
2019-04-30T01:12:53.862Z,13.78
2019-04-30T01:15:23.394Z,13.70
2019-04-30T01:17:53.984Z,13.65
2019-04-30T01:20:31.033Z,13.55
2019-04-30T01:22:55.855Z,13.48
2019-04-30T01:25:28.843Z,13.43
2019-04-30T01:27:58.868Z,13.36
2019-04-30T01:30:28.543Z,13.32
2019-04-30T01:32:58.843Z,13.28
2019-04-30T01:35:32.741Z,13.23
2019-04-30T01:38:03.984Z,13.15
2019-04-30T01:40:31.925Z,13.09
2019-04-30T01:43:01.909Z,13.11
2019-04-30T01:45:31.740Z,13.13
2019-04-30T01:48:08.671Z,13.16
2019-04-30T01:50:38.637Z,13.16
2019-04-30T01:53:11.439Z,13.16
2019-04-30T01:55:52.896Z,13.19
2019-04-30T01:58:56.686Z,13.14
2019-04-30T02:01:28.639Z,13.10
2019-04-30T02:03:59.220Z,13.06
2019-04-30T02:06:29.501Z,13.10
2019-04-30T02:08:59.395Z,13.11
2019-04-30T02:11:28.975Z,13.09
2019-04-30T02:13:59.132Z,13.04
2019-04-30T02:16:29.718Z,13.02
2019-04-30T02:18:59.748Z,13.00
2019-04-30T02:21:30.324Z,12.98
2019-04-30T02:24:00.412Z,12.99
2019-04-30T02:26:29.895Z,13.02
2019-04-30T02:28:59.720Z,13.03
2019-04-30T02:31:31.018Z,13.00
2019-04-30T02:34:10.276Z,12.98
2019-04-30T02:37:01.551Z,12.92
2019-04-30T02:39:31.163Z,12.96
2019-04-30T02:42:01.280Z,12.97
2019-04-30T02:44:32.224Z,12.97
2019-04-30T02:47:02.732Z,12.93
2019-04-30T02:49:33.749Z,12.94
2019-04-30T02:52:04.617Z,13.02
2019-04-30T02:54:35.346Z,13.04
2019-04-30T02:57:11.885Z,12.99
2019-04-30T03:00:00.231Z,13.04
2019-04-30T03:02:31.765Z,13.05
2019-04-30T03:05:01.448Z,13.13
2019-04-30T03:07:32.056Z,13.16
2019-04-30T03:10:01.555Z,13.16
2019-04-30T03:12:33.671Z,13.12
2019-04-30T03:15:02.955Z,13.12
2019-04-30T03:17:54.228Z,13.13
2019-04-30T03:20:36.386Z,13.14
2019-04-30T03:23:05.728Z,13.12
2019-04-30T03:25:36.087Z,13.19
2019-04-30T03:28:06.759Z,13.24
2019-04-30T03:30:36.197Z,13.27
2019-04-30T03:33:05.934Z,13.14
2019-04-30T03:35:35.657Z,13.05
2019-04-30T03:38:05.290Z,13.12
2019-04-30T03:40:34.919Z,13.14
2019-04-30T03:43:06.669Z,13.11
2019-04-30T03:45:40.251Z,13.10
2019-04-30T03:48:10.266Z,13.09
2019-04-30T03:50:50.363Z,13.11
2019-04-30T03:53:11.841Z,13.18
2019-04-30T03:55:41.522Z,13.21
2019-04-30T03:58:11.343Z,13.22
2019-04-30T04:01:02.876Z,13.11
2019-04-30T04:03:35.858Z,13.08
2019-04-30T04:06:39.295Z,13.07
2019-04-30T04:09:15.733Z,13.13
2019-04-30T04:11:47.220Z,13.20
2019-04-30T04:14:19.572Z,13.22
2019-04-30T04:16:50.874Z,13.16
2019-04-30T04:19:21.199Z,13.16
2019-04-30T04:21:51.965Z,13.09
2019-04-30T04:24:21.529Z,13.05
2019-04-30T04:26:51.108Z,13.02
2019-04-30T04:29:20.591Z,12.99
2019-04-30T04:31:55.014Z,12.99
2019-04-30T04:34:24.785Z,13.00
2019-04-30T04:37:00.084Z,12.97
2019-04-30T04:39:33.560Z,12.91
2019-04-30T04:42:03.155Z,12.91
2019-04-30T04:44:32.789Z,12.95
2019-04-30T04:47:12.074Z,13.02
2019-04-30T04:49:42.045Z,13.13
2019-04-30T04:52:11.635Z,13.09
2019-04-30T04:54:41.550Z,13.09
2019-04-30T04:57:17.637Z,13.16
2019-04-30T04:59:42.548Z,13.21
2019-04-30T05:02:32.826Z,13.30
2019-04-30T05:05:01.301Z,13.32
2019-04-30T05:07:30.909Z,13.30
2019-04-30T05:10:01.390Z,13.32
2019-04-30T05:12:32.224Z,13.27
2019-04-30T05:15:02.443Z,13.32
2019-04-30T05:17:32.220Z,13.34
2019-04-30T05:20:01.695Z,13.38
2019-04-30T05:22:31.300Z,13.42
2019-04-30T05:25:00.855Z,13.46
2019-04-30T05:27:30.502Z,13.49
2019-04-30T05:30:00.180Z,13.56
2019-04-30T05:32:29.842Z,13.56
2019-04-30T05:34:59.491Z,13.57
2019-04-30T05:37:29.089Z,13.67
2019-04-30T05:40:01.015Z,13.68
2019-04-30T05:42:31.076Z,13.76
2019-04-30T05:45:06.628Z,13.83
2019-04-30T05:47:36.491Z,13.90
2019-04-30T05:50:08.665Z,13.96
2019-04-30T05:52:40.877Z,14.01
2019-04-30T05:55:14.305Z,14.06
2019-04-30T05:57:53.955Z,13.89
2019-04-30T06:00:19.092Z,13.96
2019-04-30T06:02:51.747Z,14.07
2019-04-30T06:05:21.378Z,14.12
2019-04-30T06:07:55.380Z,14.13
2019-04-30T06:10:52.166Z,14.18
2019-04-30T06:13:28.817Z,14.23
2019-04-30T06:16:04.681Z,14.19
2019-04-30T06:18:34.452Z,14.15
2019-04-30T06:21:03.993Z,14.12
2019-04-30T06:23:33.974Z,14.10
2019-04-30T06:26:09.564Z,14.08
2019-04-30T06:28:41.958Z,14.06
2019-04-30T06:31:11.529Z,14.12
2019-04-30T06:33:41.882Z,14.11
2019-04-30T06:36:12.450Z,14.16
2019-04-30T06:38:42.011Z,14.24
2019-04-30T06:41:11.604Z,14.39
2019-04-30T06:43:41.298Z,14.45
2019-04-30T06:46:11.817Z,14.49
2019-04-30T06:48:42.267Z,14.58
2019-04-30T06:51:11.851Z,14.59
2019-04-30T06:53:42.051Z,14.62
2019-04-30T06:56:11.726Z,14.67
2019-04-30T06:58:41.518Z,14.74
2019-04-30T07:01:11.460Z,14.79
2019-04-30T07:03:41.471Z,14.89
2019-04-30T07:06:11.390Z,14.93
2019-04-30T07:09:02.360Z,14.97
2019-04-30T07:11:40.593Z,14.98
2019-04-30T07:14:10.448Z,14.99
2019-04-30T07:16:39.992Z,15.09
2019-04-30T07:19:14.613Z,15.23
2019-04-30T07:21:45.307Z,15.33
2019-04-30T07:24:15.463Z,15.42
2019-04-30T07:26:45.225Z,15.51
2019-04-30T07:29:19.496Z,15.60
2019-04-30T07:31:49.015Z,15.53
2019-04-30T07:34:20.525Z,15.57
2019-04-30T07:37:10.244Z,15.66
2019-04-30T07:39:23.398Z,15.70
2019-04-30T07:41:54.599Z,15.71
2019-04-30T07:44:35.492Z,15.85
2019-04-30T07:46:55.219Z,15.99
2019-04-30T07:49:25.274Z,16.06
2019-04-30T07:51:56.012Z,16.11
2019-04-30T07:54:25.988Z,16.19
2019-04-30T07:56:55.701Z,16.28
2019-04-30T07:59:25.331Z,16.44
2019-04-30T08:02:06.414Z,16.51
2019-04-30T08:05:04.241Z,16.57
2019-04-30T08:07:34.525Z,16.71
2019-04-30T08:10:06.052Z,17.80
2019-04-30T08:12:38.390Z,19.06
2019-04-30T08:15:09.605Z,20.14
2019-04-30T08:17:39.364Z,20.42
2019-04-30T08:20:09.410Z,20.46
2019-04-30T08:22:41.062Z,20.37
2019-04-30T08:25:12.155Z,20.16
2019-04-30T08:27:41.721Z,19.53
2019-04-30T08:30:21.408Z,19.04
2019-04-30T08:32:44.661Z,19.01
2019-04-30T08:35:15.872Z,18.87
2019-04-30T08:37:49.496Z,18.92
2019-04-30T08:40:19.169Z,18.92
2019-04-30T08:42:51.581Z,18.92
2019-04-30T08:45:21.231Z,19.01
2019-04-30T08:47:50.942Z,19.21
2019-04-30T08:50:21.772Z,19.32
2019-04-30T08:52:51.484Z,19.46
2019-04-30T08:55:22.508Z,19.61
2019-04-30T08:57:52.619Z,19.76
2019-04-30T09:00:22.132Z,19.75
2019-04-30T09:02:52.049Z,19.89
2019-04-30T09:05:38.541Z,20.09
2019-04-30T09:08:09.619Z,20.25
2019-04-30T09:10:39.696Z,20.35
2019-04-30T09:13:09.332Z,20.31
2019-04-30T09:15:40.129Z,20.45
2019-04-30T09:18:19.268Z,20.53
2019-04-30T09:20:49.492Z,20.52
2019-04-30T09:23:20.760Z,20.59
2019-04-30T09:25:50.704Z,20.55
2019-04-30T09:28:20.454Z,20.53
2019-04-30T09:30:50.239Z,20.52
2019-04-30T09:33:19.906Z,20.56
2019-04-30T09:35:52.256Z,20.57
2019-04-30T09:38:22.173Z,20.65
2019-04-30T09:40:54.340Z,20.60
2019-04-30T09:43:28.500Z,20.54
2019-04-30T09:45:59.315Z,20.53
2019-04-30T09:48:30.640Z,20.58
2019-04-30T09:51:01.395Z,20.61
2019-04-30T09:53:32.624Z,20.50
2019-04-30T09:56:03.998Z,20.49
2019-04-30T09:58:34.345Z,20.54
2019-04-30T10:01:04.627Z,20.54
2019-04-30T10:03:35.904Z,20.55
2019-04-30T10:06:08.794Z,20.53
2019-04-30T10:08:47.885Z,20.60
2019-04-30T10:11:20.097Z,20.61
2019-04-30T10:13:53.266Z,20.52
2019-04-30T10:16:32.759Z,20.33
2019-04-30T10:19:03.637Z,20.33
2019-04-30T10:21:33.485Z,20.33
2019-04-30T10:24:14.743Z,20.31
2019-04-30T10:26:36.767Z,20.32
2019-04-30T10:29:07.253Z,20.34
2019-04-30T10:31:39.022Z,20.32
2019-04-30T10:34:09.674Z,20.36
2019-04-30T10:36:41.485Z,20.39
2019-04-30T10:39:11.450Z,20.38
2019-04-30T10:41:41.291Z,20.39
2019-04-30T10:44:11.931Z,20.38
2019-04-30T10:46:41.599Z,20.40
2019-04-30T10:49:14.113Z,20.44
2019-04-30T10:51:43.940Z,20.50
2019-04-30T10:54:24.038Z,20.65
2019-04-30T10:56:45.884Z,20.65
2019-04-30T10:59:15.545Z,20.69
2019-04-30T11:01:45.028Z,20.77
2019-04-30T11:04:19.479Z,20.84
2019-04-30T11:06:49.850Z,20.89
2019-04-30T11:09:22.243Z,20.86
2019-04-30T11:11:51.913Z,20.88
2019-04-30T11:14:21.779Z,20.88
2019-04-30T11:16:54.046Z,20.84
2019-04-30T11:19:24.791Z,20.82
2019-04-30T11:21:54.820Z,20.88
2019-04-30T11:24:35.884Z,20.93
2019-04-30T11:26:59.423Z,20.91
2019-04-30T11:29:30.639Z,20.88
2019-04-30T11:32:05.141Z,20.99
2019-04-30T11:34:34.840Z,21.21
2019-04-30T11:37:04.264Z,21.25
2019-04-30T11:39:34.239Z,21.15
2019-04-30T11:42:04.056Z,21.12
2019-04-30T11:44:33.583Z,21.15
2019-04-30T11:47:26.043Z,21.18
2019-04-30T11:49:55.879Z,21.27
2019-04-30T11:52:25.831Z,21.16
2019-04-30T11:54:55.748Z,21.14
2019-04-30T11:57:25.462Z,21.31
2019-04-30T11:59:55.341Z,21.44
2019-04-30T12:02:32.860Z,21.48
2019-04-30T12:05:05.182Z,21.38
2019-04-30T12:07:56.082Z,21.25
2019-04-30T12:10:29.904Z,20.95
2019-04-30T12:12:59.820Z,20.77
2019-04-30T12:15:29.518Z,20.75
2019-04-30T12:17:59.080Z,20.53
2019-04-30T12:20:29.098Z,20.55
2019-04-30T12:22:59.151Z,20.47
2019-04-30T12:25:30.396Z,20.42
2019-04-30T12:28:00.168Z,20.42
2019-04-30T12:30:29.688Z,20.38
2019-04-30T12:32:59.160Z,20.45
2019-04-30T12:35:29.338Z,20.49
2019-04-30T12:37:58.992Z,20.49
2019-04-30T12:40:30.062Z,20.64
2019-04-30T12:43:00.263Z,20.74
2019-04-30T12:45:29.813Z,20.95
2019-04-30T12:48:03.588Z,20.94
2019-04-30T12:50:43.479Z,21.18
2019-04-30T12:53:21.263Z,21.22
2019-04-30T12:56:16.738Z,21.16
2019-04-30T12:58:46.758Z,21.14
2019-04-30T13:01:16.958Z,21.12
2019-04-30T13:03:56.636Z,20.90
2019-04-30T13:06:19.171Z,20.93
2019-04-30T13:08:51.790Z,21.19
2019-04-30T13:11:21.545Z,21.13
2019-04-30T13:13:52.532Z,21.14
2019-04-30T13:16:22.649Z,21.23
2019-04-30T13:18:52.166Z,21.18
2019-04-30T13:21:22.077Z,21.19
2019-04-30T13:23:51.862Z,21.29
2019-04-30T13:26:21.452Z,21.45
2019-04-30T13:29:01.253Z,21.41
2019-04-30T13:31:31.120Z,21.03
2019-04-30T13:34:19.799Z,20.97
2019-04-30T13:36:49.510Z,20.97
2019-04-30T13:39:26.962Z,20.83
2019-04-30T13:42:15.845Z,20.83
2019-04-30T13:44:39.860Z,20.70
2019-04-30T13:47:10.941Z,20.47
2019-04-30T13:49:40.615Z,20.70
2019-04-30T13:52:10.367Z,21.07
2019-04-30T13:54:39.918Z,21.24
2019-04-30T13:57:09.547Z,21.35
2019-04-30T13:59:39.138Z,21.48
2019-04-30T14:02:08.932Z,21.47
2019-04-30T14:05:16.420Z,21.52
2019-04-30T14:08:16.979Z,21.40
2019-04-30T14:10:49.357Z,21.15
2019-04-30T14:13:18.934Z,21.12
2019-04-30T14:15:49.207Z,20.82
2019-04-30T14:18:28.340Z,20.41
2019-04-30T14:20:50.363Z,20.91
2019-04-30T14:23:20.104Z,20.97
2019-04-30T14:25:56.567Z,21.03
2019-04-30T14:28:21.847Z,21.11
2019-04-30T14:30:51.428Z,20.96
2019-04-30T14:33:25.914Z,20.92
2019-04-30T14:35:52.597Z,20.74
2019-04-30T14:38:22.075Z,20.75
2019-04-30T14:40:52.446Z,20.69
2019-04-30T14:43:32.259Z,20.75
2019-04-30T14:46:21.485Z,20.39
2019-04-30T14:48:54.683Z,20.55
2019-04-30T14:51:24.712Z,20.51
2019-04-30T14:54:14.462Z,20.38
2019-04-30T14:56:50.967Z,20.44
2019-04-30T14:59:48.703Z,20.48
2019-04-30T15:02:29.627Z,20.55
2019-04-30T15:04:59.512Z,20.41
2019-04-30T15:07:29.572Z,20.34
2019-04-30T15:09:59.285Z,20.29
2019-04-30T15:12:29.303Z,20.21
2019-04-30T15:14:59.288Z,20.11
2019-04-30T15:17:28.711Z,20.08
2019-04-30T15:19:58.834Z,19.87
2019-04-30T15:22:29.062Z,19.87
2019-04-30T15:24:59.207Z,19.83
2019-04-30T15:27:29.089Z,19.47
2019-04-30T15:29:58.706Z,19.53
2019-04-30T15:32:28.678Z,19.48
2019-04-30T15:34:58.986Z,19.37
2019-04-30T15:37:28.723Z,19.35
2019-04-30T15:39:59.109Z,19.23
2019-04-30T15:42:28.968Z,19.26
2019-04-30T15:44:59.428Z,19.30
2019-04-30T15:47:29.053Z,19.20
2019-04-30T15:50:01.862Z,19.22
2019-04-30T15:52:30.344Z,19.21
2019-04-30T15:55:00.077Z,19.16
2019-04-30T15:57:29.790Z,18.96
2019-04-30T15:59:59.401Z,18.86
2019-04-30T16:02:54.802Z,18.82
2019-04-30T16:05:29.360Z,18.86
2019-04-30T16:08:33.252Z,18.79
2019-04-30T16:11:15.299Z,18.88
2019-04-30T16:14:19.160Z,18.91
2019-04-30T16:17:09.767Z,18.80
2019-04-30T16:19:39.439Z,19.00
2019-04-30T16:22:09.191Z,18.80
2019-04-30T16:24:39.059Z,18.66
2019-04-30T16:27:09.325Z,17.87
2019-04-30T16:29:40.773Z,18.70
2019-04-30T16:32:10.707Z,18.72
2019-04-30T16:34:40.542Z,18.73
2019-04-30T16:37:10.659Z,18.40
2019-04-30T16:39:41.344Z,18.35
2019-04-30T16:42:12.400Z,18.38
2019-04-30T16:44:43.476Z,18.47
2019-04-30T16:47:16.827Z,18.51
2019-04-30T16:49:48.845Z,18.52
2019-04-30T16:52:20.898Z,18.36
2019-04-30T16:54:51.076Z,18.20
2019-04-30T16:57:23.097Z,17.94
2019-04-30T16:59:54.084Z,17.71
2019-04-30T17:02:26.360Z,17.90
2019-04-30T17:05:01.710Z,17.90
2019-04-30T17:07:46.430Z,17.85
2019-04-30T17:10:29.282Z,18.00
2019-04-30T17:13:18.913Z,17.97
2019-04-30T17:15:50.133Z,17.91
2019-04-30T17:18:19.717Z,17.65
2019-04-30T17:20:49.368Z,17.78
2019-04-30T17:23:19.426Z,17.80
2019-04-30T17:25:49.301Z,17.73
2019-04-30T17:28:18.967Z,17.88
2019-04-30T17:30:49.233Z,17.78
2019-04-30T17:33:18.745Z,17.58
2019-04-30T17:35:49.842Z,17.65
2019-04-30T17:38:19.691Z,17.56
2019-04-30T17:40:49.820Z,17.48
2019-04-30T17:43:19.489Z,17.39
2019-04-30T17:45:49.728Z,17.40
2019-04-30T17:48:19.457Z,17.25
2019-04-30T17:50:49.784Z,17.30
2019-04-30T17:53:19.685Z,17.35
2019-04-30T17:55:49.210Z,17.31
2019-04-30T17:58:20.642Z,17.31
2019-04-30T18:00:54.058Z,17.12
2019-04-30T18:03:23.805Z,17.12
2019-04-30T18:05:53.850Z,17.08
2019-04-30T18:08:23.979Z,16.97
2019-04-30T18:10:53.989Z,17.00
2019-04-30T18:13:23.581Z,17.09
2019-04-30T18:15:53.596Z,16.81
2019-04-30T18:18:49.047Z,16.89
2019-04-30T18:21:30.501Z,16.80
2019-04-30T18:24:22.905Z,16.80
2019-04-30T18:27:00.137Z,16.56
2019-04-30T18:29:30.098Z,16.65
2019-04-30T18:32:00.023Z,16.63
2019-04-30T18:34:29.871Z,16.54
2019-04-30T18:36:59.714Z,16.52
2019-04-30T18:39:29.532Z,16.47
2019-04-30T18:41:59.742Z,16.39
2019-04-30T18:44:29.609Z,16.44
2019-04-30T18:46:59.247Z,16.46
2019-04-30T18:49:30.854Z,16.41
2019-04-30T18:52:00.832Z,16.35
2019-04-30T18:54:30.382Z,16.35
2019-04-30T18:57:00.250Z,16.36
2019-04-30T18:59:32.618Z,16.15
2019-04-30T19:02:01.510Z,16.15
2019-04-30T19:04:31.266Z,16.23
2019-04-30T19:07:05.440Z,15.97
2019-04-30T19:09:50.914Z,15.87
2019-04-30T19:12:45.356Z,15.92
2019-04-30T19:16:08.865Z,15.78
2019-04-30T19:18:32.958Z,15.71
2019-04-30T19:21:03.277Z,15.11
2019-04-30T19:23:33.367Z,15.48
2019-04-30T19:26:03.276Z,15.59
2019-04-30T19:28:33.141Z,15.52
2019-04-30T19:31:02.941Z,15.64
2019-04-30T19:33:32.870Z,15.52
2019-04-30T19:36:02.465Z,15.51
2019-04-30T19:38:32.058Z,15.45
2019-04-30T19:41:01.938Z,15.40
2019-04-30T19:43:31.565Z,15.48
2019-04-30T19:46:01.403Z,15.22
2019-04-30T19:48:31.247Z,15.14
2019-04-30T19:51:01.341Z,15.17
2019-04-30T19:53:31.305Z,15.25
2019-04-30T19:56:00.995Z,15.30
2019-04-30T19:58:48.053Z,15.23
2019-04-30T20:01:03.256Z,15.12
2019-04-30T20:03:32.882Z,15.14
2019-04-30T20:06:02.561Z,15.14
2019-04-30T20:08:32.272Z,15.16
2019-04-30T20:11:02.210Z,15.14
2019-04-30T20:13:37.055Z,15.11
2019-04-30T20:16:03.849Z,15.14
2019-04-30T20:18:33.644Z,15.27
2019-04-30T20:21:06.106Z,15.29
2019-04-30T20:23:35.712Z,15.29
2019-04-30T20:26:05.331Z,15.24
2019-04-30T20:28:42.081Z,15.20
2019-04-30T20:31:11.555Z,15.26
2019-04-30T20:33:40.780Z,15.10
2019-04-30T20:36:10.367Z,15.05
2019-04-30T20:38:57.654Z,15.01
2019-04-30T20:41:30.450Z,14.90
2019-04-30T20:44:00.286Z,14.98
2019-04-30T20:46:34.970Z,15.02
2019-04-30T20:49:02.444Z,15.04
2019-04-30T20:51:35.414Z,15.00
2019-04-30T20:54:06.031Z,14.99
2019-04-30T20:56:35.849Z,14.85
2019-04-30T20:59:08.702Z,14.78
2019-04-30T21:01:40.720Z,14.85
2019-04-30T21:04:10.591Z,14.81
2019-04-30T21:06:40.484Z,14.74
2019-04-30T21:09:10.564Z,14.73
2019-04-30T21:11:41.276Z,14.86
2019-04-30T21:14:11.202Z,14.72
2019-04-30T21:16:41.783Z,14.69
2019-04-30T21:19:12.017Z,14.76
2019-04-30T21:21:44.276Z,14.76
2019-04-30T21:24:13.848Z,14.76
2019-04-30T21:26:43.546Z,14.71
2019-04-30T21:29:15.839Z,14.65
2019-04-30T21:32:05.056Z,14.73
2019-04-30T21:34:42.378Z,14.64
2019-04-30T21:37:11.959Z,14.66
2019-04-30T21:39:41.507Z,14.67
2019-04-30T21:42:11.377Z,14.55
2019-04-30T21:44:41.393Z,14.59
2019-04-30T21:47:11.022Z,14.51
2019-04-30T21:49:42.530Z,14.37
2019-04-30T21:52:12.409Z,14.50
2019-04-30T21:54:42.342Z,14.54
2019-04-30T21:57:12.071Z,14.51
2019-04-30T21:59:41.748Z,14.37
2019-04-30T22:02:11.786Z,14.36
2019-04-30T22:04:41.916Z,14.35
2019-04-30T22:07:11.735Z,14.37
2019-04-30T22:09:41.486Z,14.47
2019-04-30T22:12:11.119Z,14.57
2019-04-30T22:14:41.085Z,14.59
2019-04-30T22:17:10.930Z,14.40
2019-04-30T22:19:40.702Z,14.44
2019-04-30T22:22:10.187Z,14.42
2019-04-30T22:24:40.262Z,14.47
2019-04-30T22:27:09.921Z,14.32
2019-04-30T22:29:42.147Z,14.20
2019-04-30T22:32:11.227Z,14.09
2019-04-30T22:34:41.128Z,13.95
2019-04-30T22:37:11.616Z,14.03
2019-04-30T22:39:53.855Z,14.08
2019-04-30T22:42:32.983Z,13.78
2019-04-30T22:45:06.390Z,13.74
2019-04-30T22:47:36.391Z,13.74
2019-04-30T22:50:07.598Z,13.63
2019-04-30T22:52:37.153Z,13.58
2019-04-30T22:55:07.164Z,13.40
2019-04-30T22:57:37.073Z,13.31
2019-04-30T23:00:09.748Z,13.39
2019-04-30T23:02:52.816Z,13.34
2019-04-30T23:05:22.798Z,13.25
2019-04-30T23:07:52.396Z,13.07
2019-04-30T23:10:22.542Z,13.18
2019-04-30T23:12:52.418Z,13.16
2019-04-30T23:15:23.293Z,13.13
2019-04-30T23:17:53.234Z,13.04
2019-04-30T23:20:23.493Z,12.94
2019-04-30T23:22:53.679Z,13.00
2019-04-30T23:25:23.536Z,13.01
2019-04-30T23:27:53.671Z,12.94
2019-04-30T23:30:24.043Z,12.78
2019-04-30T23:32:56.152Z,12.77
2019-04-30T23:35:26.420Z,12.80
2019-04-30T23:37:56.082Z,12.83
2019-04-30T23:40:49.830Z,12.74
2019-04-30T23:43:22.775Z,12.65
2019-04-30T23:45:53.943Z,12.59
2019-04-30T23:48:25.657Z,12.42
2019-04-30T23:50:55.866Z,12.41
2019-04-30T23:53:25.660Z,12.37
2019-04-30T23:55:55.899Z,12.30
2019-04-30T23:58:25.684Z,12.19
